Time;durP1;ratioP1;P1;durP2;ratioP2;P2;SDS_P1;SDS_P2;PMS_P1;PMS_P2;Temp;Humidity;BMP_temperature;BMP_pressure;BME280_temperature;BME280_humidity;BME280_pressure;Samples;Min_cycle;Max_cycle;Signal;HPM_P1;HPM_P2
2023/09/27 00:01:12;;;;;;;30.47;16.93;;;;;;;;;;5091924;28;20036;-39
2023/09/27 00:03:37;;;;;;;28.87;16.00;;;;;;;;;;5089224;28;20277;-38
2023/09/27 00:06:03;;;;;;;29.07;15.80;;;;;;;;;;5088515;28;20312;-38
2023/09/27 00:08:28;;;;;;;32.93;16.57;;;;;;;;;;5087038;28;20020;-38
2023/09/27 00:10:53;;;;;;;31.67;16.80;;;;;;;;;;5089390;28;20027;-38
2023/09/27 00:13:18;;;;;;;34.17;16.90;;;;;;;;;;5084524;28;20353;-38
2023/09/27 00:15:44;;;;;;;29.93;17.00;;;;;;;;;;5090742;28;20393;-39
2023/09/27 00:18:10;;;;;;;28.95;16.10;;;;;;;;;;5089549;28;20273;-39
2023/09/27 00:20:35;;;;;;;28.23;16.52;;;;;;;;;;5086530;28;21293;-38
2023/09/27 00:23:01;;;;;;;29.63;15.88;;;;;;;;;;5088943;28;20027;-39
2023/09/27 00:25:26;;;;;;;29.25;16.23;;;;;;;;;;5088006;28;20073;-38
2023/09/27 00:27:51;;;;;;;29.83;16.07;;;;;;;;;;5086825;28;20035;-38
2023/09/27 00:30:16;;;;;;;35.37;17.27;;;;;;;;;;5090295;28;20062;-39
2023/09/27 00:32:44;;;;;;;27.70;15.90;;;;;;;;;;5090578;28;20020;-38
2023/09/27 00:35:12;;;;;;;29.50;15.60;;;;;;;;;;5083838;28;20374;-38
2023/09/27 00:37:38;;;;;;;25.88;14.95;;;;;;;;;;5087090;28;20040;-39
2023/09/27 00:40:06;;;;;;;31.40;15.95;;;;;;;;;;5085586;28;20445;-38
2023/09/27 00:42:33;;;;;;;30.58;16.90;;;;;;;;;;5077105;28;20024;-39
2023/09/27 00:44:58;;;;;;;27.47;16.97;;;;;;;;;;5089819;28;20031;-38
2023/09/27 00:47:24;;;;;;;34.87;17.00;;;;;;;;;;5089247;28;20040;-39
2023/09/27 00:49:52;;;;;;;28.53;18.03;;;;;;;;;;5090486;28;20274;-39
2023/09/27 00:52:17;;;;;;;23.20;14.73;;;;;;;;;;5089874;28;20755;-38
2023/09/27 00:54:43;;;;;;;30.90;15.77;;;;;;;;;;5089350;28;20035;-39
2023/09/27 00:57:08;;;;;;;29.25;15.73;;;;;;;;;;5089244;28;20027;-39
2023/09/27 00:59:33;;;;;;;19.10;10.97;;;;;;;;;;5089791;27;20073;-39
2023/09/27 01:01:59;;;;;;;27.63;15.70;;;;;;;;;;5090485;28;20281;-39
2023/09/27 01:04:24;;;;;;;27.75;16.08;;;;;;;;;;5087882;28;20113;-39
2023/09/27 01:06:50;;;;;;;29.35;16.88;;;;;;;;;;5087048;28;20051;-39
2023/09/27 01:09:17;;;;;;;29.73;15.52;;;;;;;;;;5089274;28;20020;-38
2023/09/27 01:11:42;;;;;;;32.13;15.82;;;;;;;;;;5088256;28;20023;-39
2023/09/27 01:14:07;;;;;;;29.80;16.52;;;;;;;;;;5088524;28;20024;-39
2023/09/27 01:16:33;;;;;;;26.03;15.00;;;;;;;;;;5088148;28;20031;-38
2023/09/27 01:19:02;;;;;;;30.47;17.07;;;;;;;;;;5089983;28;20486;-39
2023/09/27 01:21:27;;;;;;;28.05;16.38;;;;;;;;;;5088086;28;20269;-39
2023/09/27 01:23:52;;;;;;;30.20;16.07;;;;;;;;;;5086081;28;20015;-39
2023/09/27 01:26:18;;;;;;;27.73;15.90;;;;;;;;;;5088448;28;20025;-39
2023/09/27 01:28:47;;;;;;;28.45;16.35;;;;;;;;;;5086903;28;20026;-39
2023/09/27 01:31:13;;;;;;;29.70;15.77;;;;;;;;;;5083227;28;20486;-39
2023/09/27 01:33:39;;;;;;;31.67;16.23;;;;;;;;;;5089416;28;20031;-39
2023/09/27 01:36:05;;;;;;;26.20;14.10;;;;;;;;;;5070231;28;20055;-39
2023/09/27 01:38:31;;;;;;;28.02;15.05;;;;;;;;;;5090307;28;20032;-38
2023/09/27 01:40:57;;;;;;;28.20;16.05;;;;;;;;;;5087753;28;20043;-39
2023/09/27 01:43:22;;;;;;;28.05;15.27;;;;;;;;;;5087662;28;20024;-39
2023/09/27 01:45:47;;;;;;;29.73;17.13;;;;;;;;;;5087560;28;20027;-39
2023/09/27 01:48:12;;;;;;;24.92;15.25;;;;;;;;;;5088898;28;20791;-39
2023/09/27 01:50:38;;;;;;;28.80;15.57;;;;;;;;;;5094494;28;20418;-39
2023/09/27 01:53:03;;;;;;;30.10;17.23;;;;;;;;;;5091979;28;20277;-38
2023/09/27 01:55:28;;;;;;;28.80;15.15;;;;;;;;;;5083328;28;20744;-38
2023/09/27 01:57:55;;;;;;;28.40;15.10;;;;;;;;;;5092067;28;20514;-38
2023/09/27 02:00:20;;;;;;;25.60;14.23;;;;;;;;;;5072583;28;20281;-38
2023/09/27 02:02:49;;;;;;;29.17;15.30;;;;;;;;;;5086831;28;20034;-39
2023/09/27 02:05:14;;;;;;;29.02;15.68;;;;;;;;;;5095265;28;20149;-38
2023/09/27 02:07:39;;;;;;;29.23;16.45;;;;;;;;;;5085419;28;20027;-38
2023/09/27 02:10:05;;;;;;;27.35;15.20;;;;;;;;;;5090794;28;20347;-38
2023/09/27 02:12:31;;;;;;;33.05;17.40;;;;;;;;;;5090508;28;20020;-38
2023/09/27 02:14:56;;;;;;;29.03;16.37;;;;;;;;;;5091914;28;20031;-38
2023/09/27 02:17:21;;;;;;;26.53;14.37;;;;;;;;;;5092359;28;20288;-38
2023/09/27 02:19:47;;;;;;;27.63;15.03;;;;;;;;;;5090778;28;20052;-38
2023/09/27 02:22:13;;;;;;;30.27;16.50;;;;;;;;;;5092063;28;20281;-38
2023/09/27 02:24:39;;;;;;;29.13;16.05;;;;;;;;;;5087427;28;20277;-38
2023/09/27 02:27:04;;;;;;;19.27;10.43;;;;;;;;;;5090437;28;20035;-38
2023/09/27 02:29:29;;;;;;;28.37;16.80;;;;;;;;;;5095159;27;20039;-38
2023/09/27 02:31:54;;;;;;;32.08;17.40;;;;;;;;;;5095149;28;20433;-38
2023/09/27 02:34:20;;;;;;;33.23;15.73;;;;;;;;;;5089205;28;20058;-38
2023/09/27 02:36:46;;;;;;;30.52;16.33;;;;;;;;;;5091753;28;20289;-38
2023/09/27 02:39:11;;;;;;;28.50;15.90;;;;;;;;;;5094193;27;20069;-38
2023/09/27 02:41:36;;;;;;;28.90;15.60;;;;;;;;;;5089941;27;20035;-38
2023/09/27 02:44:03;;;;;;;31.63;18.07;;;;;;;;;;5091745;28;20270;-39
2023/09/27 02:46:28;;;;;;;36.28;17.55;;;;;;;;;;5093229;27;20854;-38
2023/09/27 02:48:53;;;;;;;28.17;15.93;;;;;;;;;;5095875;28;20020;-38
2023/09/27 02:51:18;;;;;;;31.33;16.27;;;;;;;;;;5092689;27;20020;-38
2023/09/27 02:53:44;;;;;;;25.90;16.40;;;;;;;;;;5093166;28;20020;-38
2023/09/27 02:56:10;;;;;;;26.05;16.17;;;;;;;;;;5091013;28;20276;-38
2023/09/27 02:58:36;;;;;;;28.25;15.02;;;;;;;;;;5084625;28;20084;-39
2023/09/27 03:01:01;;;;;;;25.95;16.25;;;;;;;;;;5093283;27;20499;-38
2023/09/27 03:03:27;;;;;;;30.10;16.80;;;;;;;;;;5091760;27;20370;-38
2023/09/27 03:05:52;;;;;;;27.98;16.02;;;;;;;;;;5090731;27;20278;-38
2023/09/27 03:08:18;;;;;;;25.90;14.32;;;;;;;;;;5095346;28;20114;-39
2023/09/27 03:10:43;;;;;;;31.13;17.65;;;;;;;;;;5091575;28;20477;-38
2023/09/27 03:13:09;;;;;;;28.63;15.43;;;;;;;;;;5087876;28;20039;-39
2023/09/27 03:15:35;;;;;;;29.45;16.00;;;;;;;;;;5092145;28;20290;-38
2023/09/27 03:18:00;;;;;;;26.25;16.52;;;;;;;;;;5091369;28;20032;-38
2023/09/27 03:20:26;;;;;;;27.83;15.27;;;;;;;;;;5090873;27;20043;-39
2023/09/27 03:22:52;;;;;;;27.25;16.83;;;;;;;;;;5095213;27;20280;-38
2023/09/27 03:25:17;;;;;;;23.67;15.10;;;;;;;;;;5091058;28;20055;-38
2023/09/27 03:27:43;;;;;;;29.67;16.20;;;;;;;;;;5093379;28;20023;-38
2023/09/27 03:30:09;;;;;;;29.45;15.95;;;;;;;;;;5092039;28;20031;-38
2023/09/27 03:32:34;;;;;;;30.90;15.65;;;;;;;;;;5095972;27;20087;-38
2023/09/27 03:35:00;;;;;;;29.58;15.95;;;;;;;;;;5077308;28;20035;-38
2023/09/27 03:37:25;;;;;;;29.55;16.02;;;;;;;;;;5090937;28;20051;-38
2023/09/27 03:39:52;;;;;;;26.40;15.93;;;;;;;;;;5091855;27;20027;-38
2023/09/27 03:42:21;;;;;;;18.02;8.70;;;;;;;;;;5091419;27;20374;-38
2023/09/27 03:44:47;;;;;;;23.02;13.85;;;;;;;;;;5093376;27;20031;-38
2023/09/27 03:47:12;;;;;;;23.63;13.07;;;;;;;;;;5093607;28;20028;-38
2023/09/27 03:49:39;;;;;;;22.23;14.07;;;;;;;;;;5090750;27;20036;-38
2023/09/27 03:52:04;;;;;;;25.58;15.35;;;;;;;;;;5091924;27;20019;-39
2023/09/27 03:54:30;;;;;;;24.80;14.13;;;;;;;;;;5092449;28;20077;-38
2023/09/27 03:56:55;;;;;;;30.17;14.70;;;;;;;;;;5087312;28;20276;-39
2023/09/27 03:59:20;;;;;;;20.93;13.93;;;;;;;;;;5094934;27;20269;-38
2023/09/27 04:01:46;;;;;;;24.33;14.27;;;;;;;;;;5093609;28;20024;-38
2023/09/27 04:04:11;;;;;;;28.50;13.82;;;;;;;;;;5090530;28;20278;-38
2023/09/27 04:06:37;;;;;;;26.33;14.15;;;;;;;;;;5091191;28;20104;-38
2023/09/27 04:09:02;;;;;;;24.60;13.88;;;;;;;;;;5090281;27;20023;-38
2023/09/27 04:11:28;;;;;;;25.05;13.68;;;;;;;;;;5093134;27;20016;-38
2023/09/27 04:13:53;;;;;;;23.47;13.87;;;;;;;;;;5088256;28;20026;-38
2023/09/27 04:16:18;;;;;;;24.77;13.38;;;;;;;;;;5089200;28;20483;-38
2023/09/27 04:18:43;;;;;;;23.83;13.40;;;;;;;;;;5089091;27;20052;-38
2023/09/27 04:21:09;;;;;;;24.70;13.60;;;;;;;;;;5089127;28;20129;-38
2023/09/27 04:23:36;;;;;;;14.57;8.63;;;;;;;;;;5094484;28;20262;-38
2023/09/27 04:26:04;;;;;;;25.25;13.35;;;;;;;;;;5088366;28;20032;-38
2023/09/27 04:28:30;;;;;;;24.15;13.95;;;;;;;;;;5073709;28;20465;-38
2023/09/27 04:30:55;;;;;;;26.15;13.60;;;;;;;;;;5087894;28;20141;-38
2023/09/27 04:33:21;;;;;;;26.35;13.77;;;;;;;;;;5092877;27;20033;-38
2023/09/27 04:35:47;;;;;;;26.00;14.82;;;;;;;;;;5091107;28;20024;-38
2023/09/27 04:38:13;;;;;;;27.30;15.20;;;;;;;;;;5088289;27;20036;-38
2023/09/27 04:40:38;;;;;;;25.23;14.20;;;;;;;;;;5088694;28;20672;-38
2023/09/27 04:43:04;;;;;;;26.60;15.07;;;;;;;;;;5087910;28;20030;-38
2023/09/27 04:45:29;;;;;;;26.45;14.63;;;;;;;;;;5090574;28;20020;-38
2023/09/27 04:47:54;;;;;;;25.70;14.40;;;;;;;;;;5072385;28;20168;-38
2023/09/27 04:50:19;;;;;;;21.73;13.07;;;;;;;;;;5089208;28;20296;-38
2023/09/27 04:52:45;;;;;;;27.27;14.90;;;;;;;;;;5090144;28;20281;-38
2023/09/27 04:55:10;;;;;;;26.98;14.23;;;;;;;;;;5087217;28;20397;-38
2023/09/27 04:57:36;;;;;;;46.10;25.30;;;;;;;;;;5089587;28;20020;-38
2023/09/27 05:00:02;;;;;;;52.85;30.90;;;;;;;;;;5087811;28;20592;-38
2023/09/27 05:02:28;;;;;;;28.88;17.67;;;;;;;;;;5091149;28;20042;-37
2023/09/27 05:04:53;;;;;;;23.45;14.57;;;;;;;;;;5088773;27;20048;-38
2023/09/27 05:07:19;;;;;;;24.10;15.47;;;;;;;;;;5090104;28;20024;-37
2023/09/27 05:09:44;;;;;;;25.27;14.95;;;;;;;;;;5091776;28;20756;-38
2023/09/27 05:12:10;;;;;;;25.38;14.48;;;;;;;;;;5090807;28;20027;-38
2023/09/27 05:14:35;;;;;;;20.42;13.13;;;;;;;;;;5087334;27;20039;-38
2023/09/27 05:17:00;;;;;;;23.37;14.10;;;;;;;;;;5088640;28;20032;-38
2023/09/27 05:19:26;;;;;;;20.58;13.57;;;;;;;;;;5088835;28;20281;-38
2023/09/27 05:21:51;;;;;;;23.83;14.52;;;;;;;;;;5081126;28;20059;-38
2023/09/27 05:24:16;;;;;;;21.35;12.90;;;;;;;;;;5086263;28;20031;-38
2023/09/27 05:26:41;;;;;;;30.57;18.13;;;;;;;;;;5069972;28;20258;-38
2023/09/27 05:29:13;;;;;;;23.03;14.53;;;;;;;;;;5090017;28;20371;-38
2023/09/27 05:31:38;;;;;;;24.08;13.95;;;;;;;;;;5084580;28;20298;-38
2023/09/27 05:34:04;;;;;;;21.80;14.38;;;;;;;;;;5086612;28;20156;-38
2023/09/27 05:36:29;;;;;;;22.83;14.37;;;;;;;;;;5069301;28;20024;-38
2023/09/27 05:38:54;;;;;;;66.93;38.70;;;;;;;;;;5086728;28;20278;-38
2023/09/27 05:41:19;;;;;;;87.73;50.20;;;;;;;;;;5089551;28;20051;-38
2023/09/27 05:43:45;;;;;;;32.93;21.07;;;;;;;;;;5093319;28;20276;-38
2023/09/27 05:46:10;;;;;;;17.00;9.93;;;;;;;;;;5089712;27;20810;-38
2023/09/27 05:48:36;;;;;;;28.90;16.43;;;;;;;;;;5092391;28;20024;-38
2023/09/27 05:51:01;;;;;;;27.70;16.07;;;;;;;;;;5093387;28;20277;-38
2023/09/27 05:53:26;;;;;;;29.13;17.07;;;;;;;;;;5091419;28;20277;-38
2023/09/27 05:55:52;;;;;;;23.63;15.37;;;;;;;;;;5092070;28;20270;-38
2023/09/27 05:58:18;;;;;;;34.30;16.58;;;;;;;;;;5093083;27;20274;-38
2023/09/27 06:00:47;;;;;;;33.88;18.17;;;;;;;;;;5090398;28;20371;-38
2023/09/27 06:03:12;;;;;;;35.13;17.45;;;;;;;;;;5092365;28;20069;-38
2023/09/27 06:05:37;;;;;;;32.53;18.75;;;;;;;;;;5092786;28;20024;-38
2023/09/27 06:08:03;;;;;;;35.72;16.85;;;;;;;;;;5086325;28;20031;-38
2023/09/27 06:10:28;;;;;;;38.88;17.85;;;;;;;;;;5093111;28;20032;-38
2023/09/27 06:12:54;;;;;;;57.78;18.98;;;;;;;;;;5094945;28;20052;-38
2023/09/27 06:15:19;;;;;;;50.67;17.33;;;;;;;;;;5095720;28;20371;-37
2023/09/27 06:17:44;;;;;;;40.22;18.27;;;;;;;;;;5090109;28;20024;-38
2023/09/27 06:20:19;;;;;;;45.60;17.73;;;;;;;;;;5093569;28;20046;-39
2023/09/27 06:22:48;;;;;;;37.88;17.23;;;;;;;;;;5089361;28;20281;-38
2023/09/27 06:25:13;;;;;;;59.38;19.05;;;;;;;;;;5087085;28;20031;-38
2023/09/27 06:27:39;;;;;;;28.08;17.33;;;;;;;;;;5092058;28;20043;-39
2023/09/27 06:30:05;;;;;;;35.38;17.25;;;;;;;;;;5092797;28;20027;-38
2023/09/27 06:32:30;;;;;;;31.30;16.15;;;;;;;;;;5090422;28;20491;-38
2023/09/27 06:34:57;;;;;;;27.25;16.02;;;;;;;;;;5086981;28;20020;-38
2023/09/27 06:37:22;;;;;;;29.50;16.10;;;;;;;;;;5092993;28;20097;-38
2023/09/27 06:39:47;;;;;;;28.85;16.38;;;;;;;;;;5099154;28;20486;-38
2023/09/27 06:42:13;;;;;;;29.03;16.33;;;;;;;;;;5095647;28;20664;-38
2023/09/27 06:44:40;;;;;;;31.27;16.42;;;;;;;;;;5092496;28;20273;-38
2023/09/27 06:47:05;;;;;;;30.13;16.38;;;;;;;;;;5093957;28;20024;-38
2023/09/27 06:49:31;;;;;;;30.07;16.03;;;;;;;;;;5092792;28;20405;-38
2023/09/27 06:51:56;;;;;;;27.60;14.88;;;;;;;;;;5075317;28;20305;-37
2023/09/27 06:54:22;;;;;;;16.07;9.73;;;;;;;;;;5094814;28;20028;-39
2023/09/27 06:56:47;;;;;;;25.15;14.68;;;;;;;;;;5087942;28;20710;-38
2023/09/27 06:59:12;;;;;;;39.53;21.73;;;;;;;;;;5092919;28;20493;-38
2023/09/27 07:01:37;;;;;;;32.10;19.10;;;;;;;;;;5098546;28;20282;-38
2023/09/27 07:04:06;;;;;;;27.35;15.18;;;;;;;;;;5095885;28;20027;-37
2023/09/27 07:06:31;;;;;;;22.33;13.32;;;;;;;;;;5082443;28;20016;-38
2023/09/27 07:08:57;;;;;;;17.65;9.95;;;;;;;;;;5091432;28;20064;-38
2023/09/27 07:11:23;;;;;;;31.90;17.92;;;;;;;;;;5094002;28;20279;-38
2023/09/27 07:13:49;;;;;;;26.25;15.18;;;;;;;;;;5087151;28;20024;-38
2023/09/27 07:16:26;;;;;;;23.42;14.57;;;;;;;;;;5087407;28;20657;-38
2023/09/27 07:18:52;;;;;;;22.15;13.65;;;;;;;;;;5087690;28;20020;-39
2023/09/27 07:21:19;;;;;;;26.35;13.48;;;;;;;;;;5092924;28;20039;-38
2023/09/27 07:23:45;;;;;;;16.30;9.15;;;;;;;;;;5093339;28;20107;-39
2023/09/27 07:26:10;;;;;;;24.52;13.75;;;;;;;;;;5098108;28;20156;-38
2023/09/27 07:28:36;;;;;;;23.10;12.87;;;;;;;;;;5075995;28;20031;-38
2023/09/27 07:31:02;;;;;;;22.08;12.57;;;;;;;;;;5093223;28;20273;-38
2023/09/27 07:33:29;;;;;;;19.95;12.85;;;;;;;;;;5099409;28;20031;-38
2023/09/27 07:35:54;;;;;;;28.02;13.60;;;;;;;;;;5097868;28;20040;-38
2023/09/27 07:38:20;;;;;;;25.73;12.97;;;;;;;;;;5096088;28;20031;-38
2023/09/27 07:40:46;;;;;;;33.05;21.35;;;;;;;;;;5097212;28;20217;-38
2023/09/27 07:43:12;;;;;;;30.08;17.55;;;;;;;;;;5097934;28;20374;-38
2023/09/27 07:45:41;;;;;;;25.38;14.48;;;;;;;;;;5096169;28;20049;-38
2023/09/27 07:48:07;;;;;;;24.80;13.63;;;;;;;;;;5092959;28;20050;-38
2023/09/27 07:50:34;;;;;;;23.67;13.93;;;;;;;;;;5091041;28;20016;-38
2023/09/27 07:53:00;;;;;;;36.63;21.08;;;;;;;;;;5095340;28;20839;-38
2023/09/27 07:55:25;;;;;;;28.83;17.30;;;;;;;;;;5094487;28;20022;-38
2023/09/27 07:57:52;;;;;;;28.13;16.73;;;;;;;;;;5094798;28;20020;-39
2023/09/27 08:00:19;;;;;;;27.38;15.13;;;;;;;;;;5091376;28;20480;-39
2023/09/27 08:02:45;;;;;;;25.88;14.95;;;;;;;;;;5095594;28;20024;-38
2023/09/27 08:05:10;;;;;;;22.20;13.57;;;;;;;;;;5091051;28;20032;-38
2023/09/27 08:07:36;;;;;;;25.23;13.38;;;;;;;;;;5093112;28;20028;-38
2023/09/27 08:10:02;;;;;;;23.48;12.85;;;;;;;;;;5091393;28;20032;-38
2023/09/27 08:12:31;;;;;;;24.83;13.70;;;;;;;;;;5089457;28;20129;-38
2023/09/27 08:14:57;;;;;;;23.08;13.43;;;;;;;;;;5098940;28;20069;-38
2023/09/27 08:17:22;;;;;;;25.23;13.90;;;;;;;;;;5095691;28;20501;-38
2023/09/27 08:19:47;;;;;;;23.10;13.57;;;;;;;;;;5096533;28;20035;-38
2023/09/27 08:22:12;;;;;;;23.23;12.67;;;;;;;;;;5092603;28;20818;-38
2023/09/27 08:24:38;;;;;;;27.97;16.00;;;;;;;;;;5092478;28;20055;-38
2023/09/27 08:27:03;;;;;;;25.47;14.60;;;;;;;;;;5096520;28;20331;-38
2023/09/27 08:29:28;;;;;;;26.52;15.85;;;;;;;;;;5094530;28;22665;-38
2023/09/27 08:31:54;;;;;;;24.67;16.13;;;;;;;;;;5098373;28;20537;-38
2023/09/27 08:34:19;;;;;;;50.47;27.53;;;;;;;;;;5097578;28;20149;-38
2023/09/27 08:36:44;;;;;;;33.33;18.58;;;;;;;;;;5096337;28;20274;-38
2023/09/27 08:39:09;;;;;;;29.60;15.33;;;;;;;;;;5096095;28;20044;-39
2023/09/27 08:41:37;;;;;;;27.90;16.67;;;;;;;;;;5094278;28;20430;-38
2023/09/27 08:44:03;;;;;;;30.60;15.98;;;;;;;;;;5096394;28;20631;-38
2023/09/27 08:46:30;;;;;;;30.52;17.33;;;;;;;;;;5095289;28;20027;-38
2023/09/27 08:48:57;;;;;;;30.48;16.42;;;;;;;;;;5096579;28;20070;-38
2023/09/27 08:51:25;;;;;;;28.77;16.70;;;;;;;;;;5099698;28;20078;-38
2023/09/27 08:53:50;;;;;;;45.45;24.88;;;;;;;;;;5094027;28;20123;-38
2023/09/27 08:56:16;;;;;;;27.48;16.45;;;;;;;;;;5096628;28;20460;-38
2023/09/27 08:58:43;;;;;;;35.70;19.65;;;;;;;;;;5081437;28;20565;-38
2023/09/27 09:01:09;;;;;;;36.10;19.42;;;;;;;;;;5092260;28;20402;-39
2023/09/27 09:03:36;;;;;;;37.53;19.83;;;;;;;;;;5094892;28;20036;-38
2023/09/27 09:06:04;;;;;;;32.53;19.17;;;;;;;;;;5093382;28;20023;-38
2023/09/27 09:08:29;;;;;;;32.15;18.38;;;;;;;;;;5097778;28;20402;-38
2023/09/27 09:10:55;;;;;;;35.53;19.43;;;;;;;;;;5095034;28;20073;-39
2023/09/27 09:13:22;;;;;;;36.88;19.55;;;;;;;;;;5094113;28;20436;-39
2023/09/27 09:15:48;;;;;;;31.38;17.63;;;;;;;;;;5089899;28;20026;-38
2023/09/27 09:18:31;;;;;;;29.60;18.58;;;;;;;;;;5092560;28;20028;-38
2023/09/27 09:20:59;;;;;;;66.82;37.47;;;;;;;;;;5095460;28;20038;-38
2023/09/27 09:23:29;;;;;;;31.60;16.42;;;;;;;;;;5095448;28;20031;-39
2023/09/27 09:25:56;;;;;;;35.15;21.63;;;;;;;;;;5100739;28;20120;-38
2023/09/27 09:28:22;;;;;;;29.90;18.98;;;;;;;;;;5081379;28;20028;-38
2023/09/27 09:30:49;;;;;;;29.60;17.38;;;;;;;;;;5072047;28;20411;-39
2023/09/27 09:33:18;;;;;;;34.80;20.30;;;;;;;;;;5071512;28;20028;-39
2023/09/27 09:35:44;;;;;;;32.17;19.60;;;;;;;;;;5074177;28;20024;-38
2023/09/27 09:38:09;;;;;;;30.88;18.25;;;;;;;;;;5076708;28;20039;-39
2023/09/27 09:40:50;;;;;;;31.43;18.67;;;;;;;;;;5068339;28;20027;-38
2023/09/27 09:43:27;;;;;;;35.20;19.50;;;;;;;;;;5075169;28;20296;-38
2023/09/27 09:45:53;;;;;;;35.97;20.73;;;;;;;;;;5071249;28;20028;-39
2023/09/27 09:48:18;;;;;;;29.08;18.25;;;;;;;;;;5071519;28;20059;-38
2023/09/27 09:50:44;;;;;;;30.43;18.90;;;;;;;;;;5073880;28;20394;-38
2023/09/27 09:53:11;;;;;;;31.95;18.52;;;;;;;;;;5075118;28;20044;-38
2023/09/27 09:55:36;;;;;;;34.83;19.65;;;;;;;;;;5075207;28;20510;-39
2023/09/27 09:58:17;;;;;;;33.67;19.65;;;;;;;;;;5074013;28;20020;-38
2023/09/27 10:00:49;;;;;;;34.38;18.20;;;;;;;;;;5069623;28;20136;-38
2023/09/27 10:03:19;;;;;;;31.15;18.85;;;;;;;;;;5067108;28;20119;-38
2023/09/27 10:05:45;;;;;;;34.47;19.70;;;;;;;;;;5070381;28;20110;-38
2023/09/27 10:08:10;;;;;;;33.22;19.38;;;;;;;;;;5070827;28;20119;-38
2023/09/27 10:10:35;;;;;;;30.03;18.30;;;;;;;;;;5070337;28;20025;-39
2023/09/27 10:13:02;;;;;;;37.90;20.65;;;;;;;;;;5071141;28;20032;-39
2023/09/27 10:15:29;;;;;;;32.53;18.52;;;;;;;;;;5067720;28;20070;-38
2023/09/27 10:18:14;;;;;;;30.58;18.45;;;;;;;;;;5065967;28;20028;-38
2023/09/27 10:20:59;;;;;;;27.90;16.98;;;;;;;;;;5071659;28;21109;-39
2023/09/27 10:23:25;;;;;;;30.38;17.50;;;;;;;;;;5054420;28;20682;-38
2023/09/27 10:25:50;;;;;;;27.48;16.58;;;;;;;;;;5070796;28;20024;-38
2023/09/27 10:28:15;;;;;;;27.10;16.33;;;;;;;;;;5067152;28;20032;-38
2023/09/27 10:30:41;;;;;;;32.77;18.50;;;;;;;;;;5069927;28;20478;-38
2023/09/27 10:33:15;;;;;;;28.23;18.07;;;;;;;;;;5068333;28;20027;-38
2023/09/27 10:35:44;;;;;;;31.60;20.10;;;;;;;;;;5078704;28;20022;-38
2023/09/27 10:38:10;;;;;;;31.70;18.88;;;;;;;;;;5073337;28;20073;-38
2023/09/27 10:40:42;;;;;;;30.23;18.60;;;;;;;;;;5073531;28;20029;-39
2023/09/27 10:43:07;;;;;;;27.40;18.58;;;;;;;;;;5071780;28;20533;-38
2023/09/27 10:45:32;;;;;;;30.40;18.05;;;;;;;;;;5069921;28;20047;-39
2023/09/27 10:48:14;;;;;;;27.63;17.53;;;;;;;;;;5074456;28;20039;-38
2023/09/27 10:50:39;;;;;;;29.00;16.88;;;;;;;;;;5075223;28;20028;-38
2023/09/27 10:53:05;;;;;;;24.48;15.32;;;;;;;;;;5078233;28;20419;-39
2023/09/27 10:55:40;;;;;;;25.60;15.68;;;;;;;;;;5075786;28;20111;-38
2023/09/27 10:58:05;;;;;;;26.67;16.25;;;;;;;;;;5079363;28;20017;-38
2023/09/27 11:00:30;;;;;;;21.58;14.95;;;;;;;;;;5074833;28;20037;-39
2023/09/27 11:02:56;;;;;;;21.97;14.33;;;;;;;;;;5075909;28;20012;-38
2023/09/27 11:05:27;;;;;;;22.15;15.07;;;;;;;;;;5072958;28;20028;-38
2023/09/27 11:07:52;;;;;;;24.73;14.48;;;;;;;;;;5075520;28;20683;-38
2023/09/27 11:10:36;;;;;;;18.30;13.15;;;;;;;;;;5075486;28;20110;-38
2023/09/27 11:13:09;;;;;;;22.30;14.02;;;;;;;;;;5073992;28;20032;-38
2023/09/27 11:15:35;;;;;;;21.45;12.07;;;;;;;;;;5074657;28;20012;-38
2023/09/27 11:18:00;;;;;;;21.63;13.13;;;;;;;;;;5077527;28;20748;-38
2023/09/27 11:20:26;;;;;;;25.47;13.40;;;;;;;;;;5070423;28;20116;-38
2023/09/27 11:22:58;;;;;;;21.05;11.95;;;;;;;;;;5078376;28;20792;-39
2023/09/27 11:25:30;;;;;;;19.23;11.55;;;;;;;;;;5078066;28;20571;-38
2023/09/27 11:27:55;;;;;;;;;;;;;;;;;;5079214;28;20038;-38
2023/09/27 11:30:28;;;;;;;16.73;11.53;;;;;;;;;;5073058;28;19991;-38
2023/09/27 11:32:54;;;;;;;16.00;11.13;;;;;;;;;;5056694;28;20024;-39
2023/09/27 11:35:23;;;;;;;24.88;11.35;;;;;;;;;;5077707;28;20032;-38
2023/09/27 11:37:48;;;;;;;17.25;11.43;;;;;;;;;;5075117;28;20139;-38
2023/09/27 11:40:13;;;;;;;18.97;11.13;;;;;;;;;;5081832;28;20430;-38
2023/09/27 11:42:39;;;;;;;15.60;10.50;;;;;;;;;;5078392;28;20012;-38
2023/09/27 11:45:08;;;;;;;16.67;9.23;;;;;;;;;;5078491;28;20077;-38
2023/09/27 11:47:46;;;;;;;16.02;9.95;;;;;;;;;;5077334;28;20310;-38
2023/09/27 11:50:13;;;;;;;19.63;10.43;;;;;;;;;;5077380;28;20021;-38
2023/09/27 11:52:39;;;;;;;20.35;10.13;;;;;;;;;;5079232;28;20055;-39
2023/09/27 11:55:06;;;;;;;16.00;9.73;;;;;;;;;;5072912;28;20035;-38
2023/09/27 11:57:31;;;;;;;18.23;9.00;;;;;;;;;;5074219;28;20474;-39
2023/09/27 11:59:56;;;;;;;13.67;9.13;;;;;;;;;;5077800;28;20078;-39
2023/09/27 12:02:21;;;;;;;12.97;7.97;;;;;;;;;;5076991;28;20270;-39
2023/09/27 12:04:47;;;;;;;13.93;8.13;;;;;;;;;;5076616;28;20035;-38
2023/09/27 12:07:12;;;;;;;13.65;7.50;;;;;;;;;;5078182;28;20428;-39
2023/09/27 12:09:38;;;;;;;11.10;7.40;;;;;;;;;;5078393;28;20024;-38
2023/09/27 12:12:03;;;;;;;15.87;8.13;;;;;;;;;;5077792;28;20057;-39
2023/09/27 12:14:28;;;;;;;11.43;7.68;;;;;;;;;;5075943;28;20256;-39
2023/09/27 12:16:54;;;;;;;11.83;7.53;;;;;;;;;;5078573;28;20122;-38
2023/09/27 12:19:19;;;;;;;11.40;8.03;;;;;;;;;;5079665;28;20035;-38
2023/09/27 12:21:45;;;;;;;14.05;7.97;;;;;;;;;;5076226;28;20029;-39
2023/09/27 12:24:10;;;;;;;9.82;7.55;;;;;;;;;;5078335;28;20500;-39
2023/09/27 12:26:36;;;;;;;22.38;8.15;;;;;;;;;;5079799;28;20498;-39
2023/09/27 12:29:02;;;;;;;13.45;7.97;;;;;;;;;;5082105;28;20103;-39
2023/09/27 12:31:28;;;;;;;9.70;6.75;;;;;;;;;;5073295;28;20262;-39
2023/09/27 12:33:53;;;;;;;11.73;7.00;;;;;;;;;;5073830;28;20576;-38
2023/09/27 12:36:19;;;;;;;16.52;8.18;;;;;;;;;;5074659;28;20390;-39
2023/09/27 12:38:44;;;;;;;12.47;7.33;;;;;;;;;;5078584;28;20027;-39
2023/09/27 12:41:09;;;;;;;11.80;8.00;;;;;;;;;;5075830;28;20518;-38
2023/09/27 12:43:35;;;;;;;17.55;9.75;;;;;;;;;;5076406;28;20020;-36
2023/09/27 12:46:03;;;;;;;15.68;8.50;;;;;;;;;;5074133;28;20567;-37
2023/09/27 12:48:28;;;;;;;12.15;6.70;;;;;;;;;;5074244;28;20056;-36
2023/09/27 12:50:55;;;;;;;12.27;7.30;;;;;;;;;;5071878;28;20059;-39
2023/09/27 12:53:20;;;;;;;10.75;7.35;;;;;;;;;;5069231;28;20712;-38
2023/09/27 12:55:46;;;;;;;20.13;7.73;;;;;;;;;;5074934;28;20024;-39
2023/09/27 12:58:12;;;;;;;10.57;7.87;;;;;;;;;;5072684;28;20063;-39
2023/09/27 13:00:38;;;;;;;10.65;7.18;;;;;;;;;;5076013;28;20282;-39
2023/09/27 13:03:03;;;;;;;9.73;6.60;;;;;;;;;;5076867;28;20027;-39
2023/09/27 13:05:29;;;;;;;11.80;6.47;;;;;;;;;;5071219;28;20032;-38
2023/09/27 13:07:54;;;;;;;19.67;11.73;;;;;;;;;;5043481;28;20081;-39
2023/09/27 13:10:19;;;;;;;14.67;7.33;;;;;;;;;;5074390;28;20027;-39
2023/09/27 13:12:45;;;;;;;10.57;7.05;;;;;;;;;;5073255;28;20025;-39
2023/09/27 13:15:10;;;;;;;12.85;6.43;;;;;;;;;;5072409;28;20036;-38
2023/09/27 13:17:36;;;;;;;9.57;6.43;;;;;;;;;;5077259;28;20402;-38
2023/09/27 13:20:01;;;;;;;9.73;5.63;;;;;;;;;;5075368;28;20052;-39
2023/09/27 13:22:26;;;;;;;9.53;6.10;;;;;;;;;;5075787;28;20401;-39
2023/09/27 13:24:51;;;;;;;9.97;6.10;;;;;;;;;;5077099;28;20037;-39
2023/09/27 13:27:17;;;;;;;11.13;5.13;;;;;;;;;;5077877;28;20486;-39
2023/09/27 13:29:43;;;;;;;10.47;6.50;;;;;;;;;;5076736;28;20036;-38
2023/09/27 13:32:08;;;;;;;12.68;8.63;;;;;;;;;;5074352;28;20028;-38
2023/09/27 13:34:33;;;;;;;9.98;5.47;;;;;;;;;;5073116;28;20458;-39
2023/09/27 13:36:59;;;;;;;14.55;6.45;;;;;;;;;;5071192;28;20109;-39
2023/09/27 13:39:29;;;;;;;8.00;5.07;;;;;;;;;;5074978;28;20761;-39
2023/09/27 13:41:55;;;;;;;10.48;5.45;;;;;;;;;;5074902;28;20276;-39
2023/09/27 13:44:20;;;;;;;10.13;6.13;;;;;;;;;;5076665;28;20036;-39
2023/09/27 13:46:46;;;;;;;25.38;14.02;;;;;;;;;;5071974;28;20032;-39
2023/09/27 13:49:12;;;;;;;11.73;6.47;;;;;;;;;;5073694;28;20032;-38
2023/09/27 13:51:37;;;;;;;10.20;5.28;;;;;;;;;;5075349;28;20024;-39
2023/09/27 13:54:11;;;;;;;9.25;5.30;;;;;;;;;;5072955;28;20033;-39
2023/09/27 13:56:37;;;;;;;11.55;5.85;;;;;;;;;;5074359;28;20012;-39
2023/09/27 13:59:03;;;;;;;11.73;5.80;;;;;;;;;;5071997;28;20024;-39
2023/09/27 14:01:30;;;;;;;9.65;5.00;;;;;;;;;;5076709;28;21463;-40
2023/09/27 14:03:57;;;;;;;8.90;5.20;;;;;;;;;;5074461;28;20032;-39
2023/09/27 14:06:22;;;;;;;8.90;5.28;;;;;;;;;;5056814;28;20456;-39
2023/09/27 14:08:47;;;;;;;10.60;5.17;;;;;;;;;;5076944;28;20024;-39
2023/09/27 14:11:13;;;;;;;9.67;6.13;;;;;;;;;;5080112;28;20266;-38
2023/09/27 14:13:39;;;;;;;11.07;7.20;;;;;;;;;;5074486;28;21271;-39
2023/09/27 14:16:04;;;;;;;11.13;5.95;;;;;;;;;;5072343;28;20036;-39